Time;durP1;ratioP1;P1;durP2;ratioP2;P2;SDS_P1;SDS_P2;PMS_P1;PMS_P2;Temp;Humidity;BMP_temperature;BMP_pressure;BME280_temperature;BME280_humidity;BME280_pressure;Samples;Min_cycle;Max_cycle;Signal;HPM_P1;HPM_P2
2023/11/07 00:01:49;;;;;;;;;;;;;;;11.15;100.00;100542.69;5335992;27;20019;-72
2023/11/07 00:04:21;;;;;;;5.65;1.80;;;;;;;10.52;100.00;100544.09;5336403;27;20454;-73
2023/11/07 00:06:53;;;;;;;7.28;2.10;;;;;;;10.48;100.00;100557.47;5338181;27;20039;-73
2023/11/07 00:09:25;;;;;;;7.07;2.45;;;;;;;10.48;100.00;100556.66;5335620;27;20035;-73
2023/11/07 00:11:59;;;;;;;8.40;2.25;;;;;;;10.42;100.00;100544.13;5320827;27;20102;-73
2023/11/07 00:14:31;;;;;;;7.88;2.35;;;;;;;10.42;100.00;100546.75;5337358;27;20023;-73
2023/11/07 00:17:03;;;;;;;6.38;2.10;;;;;;;10.49;100.00;100555.69;5335593;27;20039;-73
2023/11/07 00:19:35;;;;;;;6.22;2.30;;;;;;;10.50;100.00;100561.78;5336843;27;20031;-73
2023/11/07 00:22:07;;;;;;;9.77;3.00;;;;;;;10.47;100.00;100560.25;5338356;27;20028;-72
2023/11/07 00:24:40;;;;;;;8.93;2.53;;;;;;;10.47;100.00;100563.69;5336556;27;20038;-73
2023/11/07 00:27:12;;;;;;;7.10;2.67;;;;;;;10.53;100.00;100558.84;5336170;27;20027;-73
2023/11/07 00:29:47;;;;;;;9.48;1.80;;;;;;;10.62;100.00;100560.66;5336793;27;20031;-73
2023/11/07 00:32:19;;;;;;;6.82;2.05;;;;;;;10.52;100.00;100557.22;5337605;27;20027;-73
2023/11/07 00:34:51;;;;;;;5.63;2.35;;;;;;;10.54;100.00;100555.28;5337565;27;20038;-73
2023/11/07 00:37:23;;;;;;;5.88;1.73;;;;;;;10.51;100.00;100550.31;5329915;27;20023;-73
2023/11/07 00:39:54;;;;;;;7.75;2.38;;;;;;;10.50;100.00;100559.16;5335041;27;20404;-73
2023/11/07 00:42:27;;;;;;;8.13;2.50;;;;;;;10.51;100.00;100552.94;5339021;27;20134;-73
2023/11/07 00:44:59;;;;;;;7.22;1.92;;;;;;;10.54;100.00;100557.91;5338134;27;20036;-73
2023/11/07 00:47:31;;;;;;;9.45;2.45;;;;;;;10.48;100.00;100570.56;5338359;27;20526;-73
2023/11/07 00:50:04;;;;;;;5.97;1.92;;;;;;;10.50;100.00;100572.25;5337076;27;20039;-73
2023/11/07 00:52:36;;;;;;;7.65;2.13;;;;;;;10.54;100.00;100573.63;5337726;27;20069;-73
2023/11/07 00:55:08;;;;;;;9.43;3.10;;;;;;;10.46;100.00;100580.38;5335532;27;20464;-73
2023/11/07 00:57:42;;;;;;;8.73;2.05;;;;;;;10.47;100.00;100578.56;5335239;27;20039;-73
2023/11/07 01:00:15;;;;;;;7.95;2.40;;;;;;;10.39;100.00;100576.63;5335991;27;20513;-73
2023/11/07 01:02:47;;;;;;;5.22;1.70;;;;;;;10.45;100.00;100578.72;5336189;27;20507;-73
2023/11/07 01:05:19;;;;;;;7.93;1.97;;;;;;;10.48;100.00;100586.28;5336864;27;20022;-72
2023/11/07 01:07:51;;;;;;;7.57;2.38;;;;;;;10.42;100.00;100586.84;5337022;27;20041;-73
2023/11/07 01:10:23;;;;;;;6.22;2.00;;;;;;;10.41;100.00;100585.16;5335576;27;20038;-73
2023/11/07 01:12:55;;;;;;;9.00;2.13;;;;;;;10.39;100.00;100587.09;5334652;27;20038;-73
2023/11/07 01:15:27;;;;;;;8.52;1.77;;;;;;;10.45;100.00;100588.34;5335146;27;20050;-72
2023/11/07 01:17:59;;;;;;;4.88;2.05;;;;;;;10.40;100.00;100601.03;5335766;27;20030;-73
2023/11/07 01:20:32;;;;;;;6.10;2.53;;;;;;;10.37;100.00;100601.28;5334933;27;20031;-72
2023/11/07 01:23:03;;;;;;;6.05;1.88;;;;;;;10.39;100.00;100596.75;5333856;27;20015;-73
2023/11/07 01:25:35;;;;;;;12.55;2.38;;;;;;;10.38;100.00;100601.19;5338227;27;20033;-73
2023/11/07 01:28:07;;;;;;;9.90;2.22;;;;;;;10.40;100.00;100601.03;5334867;27;20029;-73
2023/11/07 01:30:39;;;;;;;6.25;2.33;;;;;;;10.37;100.00;100591.63;5332498;27;20046;-73
2023/11/07 01:33:11;;;;;;;7.65;2.10;;;;;;;10.32;100.00;100596.47;5320669;27;20057;-72
2023/11/07 01:35:43;;;;;;;4.78;1.80;;;;;;;10.26;100.00;100589.13;5336822;27;20041;-73
2023/11/07 01:38:15;;;;;;;9.93;2.60;;;;;;;10.34;100.00;100602.41;5334590;27;20045;-73
2023/11/07 01:40:47;;;;;;;7.43;2.22;;;;;;;10.34;100.00;100599.78;5334960;27;20030;-73
2023/11/07 01:43:19;;;;;;;7.68;2.10;;;;;;;10.37;100.00;100604.72;5335081;27;20023;-73
2023/11/07 01:45:50;;;;;;;6.60;2.20;;;;;;;10.41;100.00;100606.13;5336754;27;20469;-73
2023/11/07 01:48:22;;;;;;;6.85;2.00;;;;;;;10.43;100.00;100608.63;5334986;27;20039;-73
2023/11/07 01:50:55;;;;;;;8.60;2.40;;;;;;;10.42;100.00;100604.34;5333561;27;20502;-73
2023/11/07 01:53:28;;;;;;;7.30;2.00;;;;;;;10.51;100.00;100605.31;5333177;27;20035;-73
2023/11/07 01:56:00;;;;;;;5.80;2.15;;;;;;;10.50;100.00;100609.75;5335219;27;20034;-73
2023/11/07 01:58:32;;;;;;;5.80;2.22;;;;;;;10.48;100.00;100615.09;5334272;27;20023;-73
2023/11/07 02:01:05;;;;;;;7.38;2.28;;;;;;;10.47;100.00;100616.06;5318303;27;20588;-73
2023/11/07 02:03:37;;;;;;;5.70;1.90;;;;;;;10.53;100.00;100606.00;5315778;28;20488;-73
2023/11/07 02:06:09;;;;;;;6.15;1.80;;;;;;;10.57;100.00;100607.38;5335335;27;20397;-73
2023/11/07 02:08:41;;;;;;;7.30;2.10;;;;;;;10.54;100.00;100616.38;5331969;27;20027;-73
2023/11/07 02:11:13;;;;;;;6.95;2.70;;;;;;;10.56;100.00;100617.03;5335511;27;20027;-73
2023/11/07 02:13:48;;;;;;;9.93;2.05;;;;;;;10.67;100.00;100616.09;5331874;28;20042;-73
2023/11/07 02:16:20;;;;;;;8.27;2.30;;;;;;;10.58;100.00;100619.53;5334580;28;20464;-73
2023/11/07 02:18:52;;;;;;;7.15;2.00;;;;;;;10.56;100.00;100618.84;5333899;28;20019;-73
2023/11/07 02:21:24;;;;;;;7.43;2.17;;;;;;;10.55;100.00;100614.56;5335346;27;20027;-73
2023/11/07 02:23:57;;;;;;;8.82;2.28;;;;;;;10.53;100.00;100616.47;5332442;27;20032;-73
2023/11/07 02:26:29;;;;;;;7.55;2.40;;;;;;;10.56;100.00;100622.28;5339715;27;20023;-73
2023/11/07 02:29:00;;;;;;;6.22;1.80;;;;;;;10.45;100.00;100617.16;5329490;27;20054;-74
2023/11/07 02:31:32;;;;;;;6.15;1.95;;;;;;;10.45;100.00;100618.00;5338265;27;20049;-73
2023/11/07 02:34:05;;;;;;;9.68;2.72;;;;;;;10.46;100.00;100617.03;5338808;27;20027;-74
2023/11/07 02:36:38;;;;;;;7.35;2.42;;;;;;;10.46;100.00;100608.34;5338930;27;20388;-73
2023/11/07 02:39:12;;;;;;;7.70;2.53;;;;;;;10.43;100.00;100614.69;5339502;27;20476;-74
2023/11/07 02:41:45;;;;;;;7.80;2.13;;;;;;;10.43;100.00;100613.84;5316947;27;20047;-73
2023/11/07 02:44:17;;;;;;;6.88;2.10;;;;;;;10.40;100.00;100606.25;5338579;27;20617;-73
2023/11/07 02:46:51;;;;;;;7.63;2.78;;;;;;;10.36;100.00;100605.69;5335629;27;20031;-73
2023/11/07 02:49:23;;;;;;;5.45;2.20;;;;;;;10.34;100.00;100606.78;5338515;27;20034;-74
2023/11/07 02:51:55;;;;;;;6.40;2.30;;;;;;;10.28;100.00;100602.94;5336702;27;20564;-74
2023/11/07 02:54:27;;;;;;;8.85;3.55;;;;;;;10.28;100.00;100599.50;5328267;27;20517;-74
2023/11/07 02:56:59;;;;;;;7.20;2.65;;;;;;;10.27;100.00;100603.06;5337848;27;20039;-74
2023/11/07 02:59:31;;;;;;;6.88;2.33;;;;;;;10.29;100.00;100601.13;5338633;27;20481;-74
2023/11/07 03:02:03;;;;;;;5.95;2.40;;;;;;;10.18;100.00;100584.53;5337752;27;20373;-74
2023/11/07 03:04:35;;;;;;;7.03;2.45;;;;;;;10.21;100.00;100588.69;5338271;27;20046;-74
2023/11/07 03:07:07;;;;;;;7.47;2.97;;;;;;;10.19;100.00;100599.31;5337611;27;20031;-74
2023/11/07 03:09:40;;;;;;;8.18;2.30;;;;;;;10.17;100.00;100598.59;5338539;27;20057;-74
2023/11/07 03:12:14;;;;;;;;;;;;;;;10.88;100.00;100587.16;5337224;27;20449;-73
2023/11/07 03:14:45;;;;;;;5.43;2.50;;;;;;;10.23;100.00;100589.41;5338395;27;19918;-74
2023/11/07 03:17:17;;;;;;;7.65;2.85;;;;;;;10.14;100.00;100593.63;5339102;27;20023;-74
2023/11/07 03:19:52;;;;;;;7.05;2.80;;;;;;;10.13;100.00;100588.53;5332633;27;20015;-73
2023/11/07 03:22:27;;;;;;;8.02;3.03;;;;;;;10.16;100.00;100588.28;5331821;27;20054;-73
2023/11/07 03:24:58;;;;;;;10.82;2.63;;;;;;;10.15;100.00;100597.06;5338886;27;20023;-74
2023/11/07 03:27:31;;;;;;;6.25;2.30;;;;;;;10.13;100.00;100589.34;5337843;27;20031;-74
2023/11/07 03:30:05;;;;;;;7.50;2.92;;;;;;;10.11;100.00;100598.28;5336472;27;20023;-74
2023/11/07 03:32:37;;;;;;;8.43;2.90;;;;;;;10.08;100.00;100588.94;5334722;27;20045;-74
2023/11/07 03:35:09;;;;;;;9.13;3.13;;;;;;;10.07;100.00;100589.06;5333697;27;20031;-74
2023/11/07 03:37:41;;;;;;;7.72;2.58;;;;;;;10.08;100.00;100590.72;5337099;27;20030;-74
2023/11/07 03:40:13;;;;;;;7.50;2.97;;;;;;;10.08;100.00;100603.81;5338218;27;20023;-74
2023/11/07 03:42:45;;;;;;;6.55;3.10;;;;;;;10.08;100.00;100598.59;5338707;27;20384;-74
2023/11/07 03:45:17;;;;;;;9.60;3.33;;;;;;;10.05;100.00;100596.22;5336427;27;20035;-73
2023/11/07 03:47:49;;;;;;;7.55;3.10;;;;;;;10.05;100.00;100593.59;5335631;27;20034;-74
2023/11/07 03:50:22;;;;;;;6.43;3.40;;;;;;;10.03;100.00;100603.38;5329892;27;20102;-74
2023/11/07 03:52:54;;;;;;;6.88;2.78;;;;;;;10.02;100.00;100604.34;5335622;27;20035;-74
2023/11/07 03:55:26;;;;;;;9.48;3.50;;;;;;;9.99;100.00;100606.25;5333654;27;20038;-74
2023/11/07 03:57:58;;;;;;;8.00;3.38;;;;;;;9.95;100.00;100607.47;5337879;27;20030;-74
2023/11/07 04:00:30;;;;;;;7.38;3.58;;;;;;;9.92;100.00;100615.56;5335854;27;20130;-74
2023/11/07 04:03:03;;;;;;;9.65;3.25;;;;;;;9.93;100.00;100613.81;5334783;27;20035;-74
2023/11/07 04:05:35;;;;;;;6.75;3.10;;;;;;;9.96;100.00;100616.16;5334737;27;20024;-73
2023/11/07 04:08:07;;;;;;;8.05;3.05;;;;;;;9.95;100.00;100615.31;5338333;27;20138;-74
2023/11/07 04:10:39;;;;;;;8.68;3.83;;;;;;;9.92;100.00;100606.91;5336623;27;20031;-74
2023/11/07 04:13:11;;;;;;;7.88;3.13;;;;;;;9.92;100.00;100607.72;5334770;27;20027;-73
2023/11/07 04:15:42;;;;;;;8.02;3.25;;;;;;;9.91;100.00;100603.47;5319881;27;20769;-74
2023/11/07 04:18:14;;;;;;;12.27;3.58;;;;;;;9.90;100.00;100593.13;5336456;27;20122;-74
2023/11/07 04:20:46;;;;;;;8.75;3.33;;;;;;;9.88;100.00;100605.50;5337470;27;20023;-74
2023/11/07 04:23:19;;;;;;;9.35;3.85;;;;;;;9.88;100.00;100611.56;5334646;27;20092;-74
2023/11/07 04:25:51;;;;;;;9.55;3.67;;;;;;;9.90;100.00;100606.22;5336862;27;20023;-73
2023/11/07 04:28:25;;;;;;;6.78;3.70;;;;;;;9.88;100.00;100615.97;5315999;27;20364;-73
2023/11/07 04:30:57;;;;;;;11.82;4.82;;;;;;;9.88;100.00;100616.81;5336188;27;20027;-73
2023/11/07 04:33:28;;;;;;;9.35;3.80;;;;;;;9.90;100.00;100620.13;5333624;27;20383;-74
2023/11/07 04:36:01;;;;;;;9.02;4.03;;;;;;;9.87;100.00;100620.38;5335147;27;20444;-74
2023/11/07 04:38:34;;;;;;;7.85;3.40;;;;;;;9.89;100.00;100618.47;5332566;27;20023;-74
2023/11/07 04:41:06;;;;;;;9.48;4.18;;;;;;;9.87;100.00;100609.91;5326646;27;20035;-74
2023/11/07 04:43:39;;;;;;;7.28;3.40;;;;;;;9.88;100.00;100622.03;5331444;27;20703;-74
2023/11/07 04:46:12;;;;;;;7.95;3.67;;;;;;;9.90;100.00;100621.91;5334707;27;20036;-73
2023/11/07 04:48:45;;;;;;;7.38;3.92;;;;;;;9.90;100.00;100619.31;5337051;27;20728;-74
2023/11/07 04:51:17;;;;;;;8.80;3.72;;;;;;;9.92;100.00;100622.59;5335965;27;20045;-73
2023/11/07 04:53:49;;;;;;;8.80;4.00;;;;;;;9.93;100.00;100627.72;5338146;27;20042;-73
2023/11/07 04:56:22;;;;;;;10.27;4.00;;;;;;;9.92;100.00;100636.50;5337161;27;20400;-73
2023/11/07 04:58:53;;;;;;;9.68;3.60;;;;;;;9.90;100.00;100620.13;5336750;27;20053;-74
2023/11/07 05:01:25;;;;;;;9.23;3.67;;;;;;;9.86;100.00;100618.75;5336858;27;20059;-74
2023/11/07 05:03:58;;;;;;;7.97;3.30;;;;;;;9.91;100.00;100628.81;5334388;27;20033;-73
2023/11/07 05:06:30;;;;;;;6.93;3.90;;;;;;;9.93;100.00;100626.91;5334589;27;20023;-74
2023/11/07 05:09:07;;;;;;;6.60;3.78;;;;;;;9.97;100.00;100629.13;5331573;27;20024;-73
2023/11/07 05:11:40;;;;;;;8.48;3.75;;;;;;;9.94;100.00;100621.53;5333063;27;20042;-74
2023/11/07 05:14:12;;;;;;;10.55;4.03;;;;;;;10.07;100.00;100629.13;5336201;27;20038;-73
2023/11/07 05:16:44;;;;;;;7.95;4.00;;;;;;;10.02;100.00;100617.41;5335763;27;20469;-73
2023/11/07 05:19:17;;;;;;;8.98;4.25;;;;;;;10.07;100.00;100620.47;5334873;27;20401;-73
2023/11/07 05:21:48;;;;;;;9.35;4.93;;;;;;;10.08;100.00;100630.00;5335735;27;20023;-73
2023/11/07 05:24:20;;;;;;;8.60;4.28;;;;;;;10.04;100.00;100620.72;5338204;27;20473;-75
2023/11/07 05:26:52;;;;;;;10.25;5.03;;;;;;;10.05;100.00;100627.63;5336279;27;20411;-73
2023/11/07 05:29:25;;;;;;;10.70;5.13;;;;;;;10.01;100.00;100618.38;5335152;27;20072;-74
2023/11/07 05:31:58;;;;;;;;;;;;;;;10.61;100.00;100617.47;5336005;27;20373;-73
2023/11/07 05:34:30;;;;;;;9.27;5.10;;;;;;;10.04;100.00;100623.34;5335019;27;19931;-73
2023/11/07 05:37:02;;;;;;;10.27;6.40;;;;;;;9.98;100.00;100617.69;5331079;27;20023;-75
2023/11/07 05:39:34;;;;;;;11.70;6.30;;;;;;;9.92;100.00;100623.44;5332856;27;20054;-73
2023/11/07 05:42:06;;;;;;;10.80;6.20;;;;;;;9.93;100.00;100619.06;5338057;27;20089;-73
2023/11/07 05:44:39;;;;;;;7.93;5.85;;;;;;;9.87;100.00;100623.00;5335760;27;20049;-74
2023/11/07 05:47:11;;;;;;;12.77;6.60;;;;;;;9.90;100.00;100619.31;5331781;27;20385;-74
2023/11/07 05:49:42;;;;;;;9.95;6.40;;;;;;;9.86;100.00;100621.34;5334611;27;20031;-73
2023/11/07 05:52:14;;;;;;;10.05;6.60;;;;;;;9.88;100.00;100622.03;5334840;27;20474;-73
2023/11/07 05:54:46;;;;;;;11.48;7.18;;;;;;;9.88;100.00;100629.88;5334343;27;20389;-75
2023/11/07 05:57:19;;;;;;;11.25;7.07;;;;;;;9.88;100.00;100629.88;5335292;27;20027;-72
2023/11/07 05:59:51;;;;;;;8.93;6.38;;;;;;;9.93;100.00;100632.13;5334063;27;20066;-73
2023/11/07 06:02:24;;;;;;;14.90;7.30;;;;;;;9.90;100.00;100633.22;5309520;27;20044;-73
2023/11/07 06:04:56;;;;;;;13.20;6.22;;;;;;;9.88;100.00;100629.88;5335963;27;20042;-72
2023/11/07 06:07:28;;;;;;;9.52;6.25;;;;;;;9.84;100.00;100636.34;5335420;27;20469;-73
2023/11/07 06:10:03;;;;;;;13.48;7.45;;;;;;;9.89;100.00;100646.44;5334233;27;20057;-73
2023/11/07 06:12:35;;;;;;;10.15;6.68;;;;;;;9.89;100.00;100646.44;5336424;27;20485;-72
2023/11/07 06:15:07;;;;;;;10.32;6.53;;;;;;;9.89;100.00;100644.66;5332828;28;20041;-73
2023/11/07 06:17:39;;;;;;;11.80;5.77;;;;;;;9.90;100.00;100642.84;5335211;28;20106;-73
2023/11/07 06:20:12;;;;;;;10.60;6.35;;;;;;;9.93;100.00;100646.03;5335127;28;20364;-73
2023/11/07 06:22:44;;;;;;;9.95;6.25;;;;;;;9.98;100.00;100651.69;5333025;28;20027;-73
2023/11/07 06:25:17;;;;;;;8.35;5.43;;;;;;;10.04;100.00;100646.91;5332902;28;20825;-72
2023/11/07 06:27:50;;;;;;;7.25;4.82;;;;;;;10.09;100.00;100652.59;5333760;28;20038;-73
2023/11/07 06:30:22;;;;;;;10.27;5.10;;;;;;;10.05;100.00;100654.63;5334885;28;20336;-72
2023/11/07 06:32:54;;;;;;;9.40;4.95;;;;;;;10.09;100.00;100647.34;5325557;28;20119;-73
2023/11/07 06:35:26;;;;;;;8.98;5.75;;;;;;;10.14;100.00;100650.38;5338083;28;20040;-72
2023/11/07 06:37:58;;;;;;;8.50;5.07;;;;;;;10.14;100.00;100653.00;5333558;28;20030;-73
2023/11/07 06:40:30;;;;;;;7.28;4.10;;;;;;;10.16;100.00;100664.19;5336707;28;20059;-72
2023/11/07 06:43:03;;;;;;;8.80;4.88;;;;;;;10.16;100.00;100665.00;5336372;28;20019;-74
2023/11/07 06:45:35;;;;;;;10.48;3.97;;;;;;;10.19;100.00;100667.38;5337975;28;20392;-72
2023/11/07 06:48:07;;;;;;;8.20;4.32;;;;;;;10.24;100.00;100672.22;5333851;28;20027;-72
2023/11/07 06:50:39;;;;;;;5.85;3.83;;;;;;;10.27;100.00;100674.59;5333979;28;20515;-74
2023/11/07 06:53:11;;;;;;;6.05;3.88;;;;;;;10.22;100.00;100669.69;5335297;28;20027;-74
2023/11/07 06:55:42;;;;;;;6.78;4.00;;;;;;;10.33;100.00;100679.28;5337520;28;20019;-73
2023/11/07 06:58:15;;;;;;;10.23;4.43;;;;;;;10.34;100.00;100680.09;5337871;28;20019;-74
2023/11/07 07:00:46;;;;;;;7.72;3.60;;;;;;;10.34;100.00;100672.25;5327978;28;20369;-73
2023/11/07 07:03:18;;;;;;;9.52;3.97;;;;;;;10.38;100.00;100681.50;5336232;28;20031;-72
2023/11/07 07:05:53;;;;;;;8.63;3.83;;;;;;;10.46;100.00;100685.13;5337947;28;20031;-73
2023/11/07 07:08:25;;;;;;;6.65;3.35;;;;;;;10.36;100.00;100681.66;5338110;28;20031;-74
2023/11/07 07:10:58;;;;;;;7.32;3.72;;;;;;;10.34;100.00;100686.19;5340056;27;20476;-73
2023/11/07 07:13:30;;;;;;;10.20;3.97;;;;;;;10.36;100.00;100686.88;5341464;27;20058;-74
2023/11/07 07:16:03;;;;;;;6.47;3.25;;;;;;;10.30;100.00;100689.19;5342110;27;20035;-74
2023/11/07 07:18:39;;;;;;;9.00;3.67;;;;;;;10.32;100.00;100689.91;5340975;27;20445;-75
2023/11/07 07:21:12;;;;;;;7.35;3.42;;;;;;;10.30;100.00;100694.44;5339094;27;20023;-75
2023/11/07 07:23:46;;;;;;;;;;;;;;;10.96;100.00;100695.56;5341312;27;20026;-75
2023/11/07 07:26:20;;;;;;;8.73;3.70;;;;;;;10.31;100.00;100699.56;5342404;27;19915;-74
2023/11/07 07:28:52;;;;;;;7.85;3.13;;;;;;;10.22;100.00;100692.44;5332995;27;20694;-74
2023/11/07 07:31:27;;;;;;;9.40;3.35;;;;;;;10.25;100.00;100710.53;5340743;27;20027;-75
2023/11/07 07:33:59;;;;;;;5.70;3.05;;;;;;;10.25;100.00;100705.31;5339458;27;20578;-75
2023/11/07 07:36:33;;;;;;;8.88;3.30;;;;;;;10.24;100.00;100708.88;5342600;27;20392;-74
2023/11/07 07:39:05;;;;;;;8.50;3.70;;;;;;;10.26;100.00;100714.81;5338334;27;20030;-75
2023/11/07 07:41:37;;;;;;;9.00;4.25;;;;;;;10.30;100.00;100729.28;5340787;27;20042;-76
2023/11/07 07:44:12;;;;;;;8.05;3.55;;;;;;;10.28;100.00;100722.56;5340800;27;20475;-74
2023/11/07 07:46:44;;;;;;;5.93;3.30;;;;;;;10.26;100.00;100720.03;5341409;27;20097;-74
2023/11/07 07:49:16;;;;;;;6.00;3.17;;;;;;;10.26;100.00;100735.75;5341627;27;20023;-74
2023/11/07 07:51:53;;;;;;;7.68;3.92;;;;;;;10.39;100.00;100728.53;5314382;27;20503;-76
2023/11/07 07:54:25;;;;;;;7.45;3.50;;;;;;;10.24;100.00;100735.88;5310049;28;20489;-74
2023/11/07 07:56:57;;;;;;;6.65;3.42;;;;;;;10.26;100.00;100737.56;5337542;27;20483;-74
2023/11/07 07:59:29;;;;;;;6.72;3.83;;;;;;;10.27;100.00;100744.47;5339351;27;20500;-75
2023/11/07 08:02:05;;;;;;;8.13;3.90;;;;;;;10.28;100.00;100749.56;5341252;27;20509;-74
2023/11/07 08:04:37;;;;;;;8.48;4.05;;;;;;;10.32;100.00;100744.91;5341914;27;20023;-74
2023/11/07 08:07:09;;;;;;;8.07;3.75;;;;;;;10.31;100.00;100741.44;5339340;27;20100;-74
2023/11/07 08:09:40;;;;;;;8.07;3.95;;;;;;;10.37;100.00;100750.56;5340000;27;20057;-74
2023/11/07 08:12:12;;;;;;;9.10;4.10;;;;;;;10.42;100.00;100751.84;5339537;27;20443;-73
2023/11/07 08:14:46;;;;;;;8.00;4.53;;;;;;;10.46;100.00;100749.78;5340121;27;20736;-73
2023/11/07 08:17:18;;;;;;;8.10;4.43;;;;;;;10.45;100.00;100742.88;5340539;27;20023;-73
2023/11/07 08:19:51;;;;;;;8.50;3.97;;;;;;;10.51;100.00;100741.53;5341713;27;20039;-74
2023/11/07 08:22:23;;;;;;;7.68;4.07;;;;;;;10.55;100.00;100753.41;5333283;27;20023;-74
2023/11/07 08:24:55;;;;;;;7.20;3.75;;;;;;;10.52;100.00;100764.13;5340388;27;20026;-73
2023/11/07 08:27:27;;;;;;;7.30;4.10;;;;;;;10.55;100.00;100761.25;5340308;27;20045;-73
2023/11/07 08:29:59;;;;;;;6.90;3.80;;;;;;;10.56;100.00;100776.00;5339726;27;20036;-73
2023/11/07 08:32:32;;;;;;;7.73;4.13;;;;;;;10.61;100.00;100768.59;5341308;27;20035;-74
2023/11/07 08:35:06;;;;;;;7.43;3.92;;;;;;;10.65;100.00;100764.75;5316123;27;20306;-73
2023/11/07 08:37:38;;;;;;;6.18;3.60;;;;;;;10.56;100.00;100757.66;5338699;27;20031;-74
2023/11/07 08:40:12;;;;;;;6.40;3.53;;;;;;;10.66;100.00;100766.41;5339016;27;20030;-73
2023/11/07 08:42:44;;;;;;;;;;;;;;;11.32;100.00;100782.41;5339137;27;20401;-74
2023/11/07 08:45:18;;;;;;;7.75;3.50;;;;;;;10.76;100.00;100776.91;5337769;27;19998;-74
2023/11/07 08:47:52;;;;;;;5.03;3.13;;;;;;;10.76;100.00;100777.75;5338962;27;20035;-73
2023/11/07 08:50:25;;;;;;;5.65;3.25;;;;;;;10.78;100.00;100775.81;5329491;27;20495;-73
2023/11/07 08:52:57;;;;;;;4.88;3.40;;;;;;;10.84;100.00;100788.41;5339040;27;20046;-73
2023/11/07 08:55:29;;;;;;;5.55;3.40;;;;;;;10.84;100.00;100783.16;5319107;27;20034;-73
2023/11/07 08:58:03;;;;;;;5.53;3.50;;;;;;;10.85;100.00;100792.66;5340275;27;20027;-73
2023/11/07 09:00:34;;;;;;;6.13;3.15;;;;;;;10.93;100.00;100789.38;5339118;27;20031;-73
2023/11/07 09:03:08;;;;;;;5.63;2.70;;;;;;;10.89;100.00;100799.31;5339274;27;20114;-73
2023/11/07 09:05:40;;;;;;;5.50;2.72;;;;;;;10.93;100.00;100790.22;5337965;27;20304;-73
2023/11/07 09:08:12;;;;;;;5.63;3.07;;;;;;;11.02;100.00;100796.44;5336065;27;20034;-73
2023/11/07 09:10:44;;;;;;;7.22;2.90;;;;;;;11.01;100.00;100793.94;5336105;27;20496;-73
2023/11/07 09:13:16;;;;;;;5.68;2.90;;;;;;;11.06;100.00;100797.00;5337357;27;20043;-74
2023/11/07 09:15:48;;;;;;;6.85;2.88;;;;;;;11.08;100.00;100797.69;5337367;27;20109;-74
2023/11/07 09:18:20;;;;;;;5.07;2.90;;;;;;;11.09;100.00;100800.19;5331103;27;20055;-74
2023/11/07 09:20:53;;;;;;;5.30;2.60;;;;;;;11.10;100.00;100801.84;5339931;27;20030;-74
2023/11/07 09:23:25;;;;;;;3.97;2.47;;;;;;;11.22;100.00;100801.75;5338704;27;20019;-74
2023/11/07 09:25:57;;;;;;;6.57;2.67;;;;;;;11.12;100.00;100793.84;5321398;27;20254;-74
2023/11/07 09:28:29;;;;;;;8.00;2.27;;;;;;;11.28;100.00;100806.44;5338423;27;20030;-74
2023/11/07 09:31:02;;;;;;;5.15;2.67;;;;;;;11.23;100.00;100806.00;5339809;27;20420;-74
2023/11/07 09:33:34;;;;;;;4.10;2.40;;;;;;;11.31;100.00;100814.84;5339562;27;20027;-74
2023/11/07 09:36:09;;;;;;;3.13;1.90;;;;;;;11.40;100.00;100810.59;5338216;27;20293;-73
2023/11/07 09:38:42;;;;;;;4.32;1.80;;;;;;;11.38;100.00;100810.72;5339162;27;20041;-74
2023/11/07 09:41:16;;;;;;;4.97;1.88;;;;;;;11.40;100.00;100815.81;5337417;27;20027;-74
2023/11/07 09:43:49;;;;;;;4.65;2.10;;;;;;;11.48;100.00;100815.16;5335491;27;20038;-74
2023/11/07 09:46:22;;;;;;;4.35;2.13;;;;;;;11.42;100.00;100816.53;5328948;27;20383;-74
2023/11/07 09:48:54;;;;;;;5.63;1.95;;;;;;;11.62;100.00;100823.44;5338129;27;20057;-74
2023/11/07 09:51:27;;;;;;;4.70;1.95;;;;;;;11.63;100.00;100821.66;5334664;27;20046;-74
2023/11/07 09:53:59;;;;;;;6.10;2.17;;;;;;;11.71;100.00;100824.44;5335690;27;20028;-74
2023/11/07 09:56:38;;;;;;;4.47;1.50;;;;;;;11.71;100.00;100834.94;5335360;27;20027;-74
2023/11/07 09:59:21;;;;;;;7.38;2.20;;;;;;;11.86;100.00;100825.72;5337166;27;20031;-75
2023/11/07 10:01:52;;;;;;;3.08;1.38;;;;;;;11.83;100.00;100840.88;5335986;27;20019;-74
2023/11/07 10:04:25;;;;;;;5.60;1.70;;;;;;;11.83;100.00;100851.38;5336430;27;20114;-74
2023/11/07 10:06:58;;;;;;;3.40;1.77;;;;;;;12.05;100.00;100837.16;5334194;27;20066;-74
2023/11/07 10:09:32;;;;;;;5.18;1.40;;;;;;;12.11;100.00;100844.47;5336718;27;20034;-74
2023/11/07 10:12:04;;;;;;;6.30;1.83;;;;;;;12.08;100.00;100840.31;5328475;27;20023;-75
2023/11/07 10:14:36;;;;;;;3.92;1.38;;;;;;;12.02;100.00;100843.53;5336596;27;20031;-74
2023/11/07 10:17:20;;;;;;;4.30;1.70;;;;;;;12.16;100.00;100831.75;5316622;28;20069;-74
2023/11/07 10:20:05;;;;;;;3.80;1.27;;;;;;;12.32;100.00;100839.06;5336398;28;20019;-74
2023/11/07 10:22:46;;;;;;;2.67;1.30;;;;;;;12.38;100.00;100833.22;5335148;28;20031;-74
2023/11/07 10:25:34;;;;;;;5.18;1.67;;;;;;;12.39;100.00;100840.16;5336759;28;20042;-75
2023/11/07 10:28:08;;;;;;;2.60;1.20;;;;;;;12.27;100.00;100843.88;5337495;28;20105;-74
2023/11/07 10:30:45;;;;;;;3.42;1.17;;;;;;;12.42;100.00;100831.97;5337700;27;20019;-74
2023/11/07 10:33:25;;;;;;;3.53;1.20;;;;;;;12.44;100.00;100840.53;5337504;28;20031;-74
2023/11/07 10:35:59;;;;;;;4.07;1.48;;;;;;;12.33;100.00;100841.53;5334276;28;20034;-74
2023/11/07 10:38:31;;;;;;;4.32;1.40;;;;;;;12.46;100.00;100835.97;5334934;28;20031;-74
2023/11/07 10:41:03;;;;;;;3.47;1.45;;;;;;;12.42;100.00;100847.72;5321816;28;20377;-74
2023/11/07 10:43:37;;;;;;;4.20;1.42;;;;;;;12.43;100.00;100848.59;5317422;28;20051;-74
2023/11/07 10:46:10;;;;;;;3.65;1.17;;;;;;;12.42;100.00;100852.97;5338804;27;20027;-74
2023/11/07 10:48:43;;;;;;;;;;;;;;;13.18;100.00;100839.69;5341865;27;20027;-74
2023/11/07 10:51:15;;;;;;;3.10;1.40;;;;;;;12.62;100.00;100848.53;5340612;27;19918;-74
2023/11/07 10:53:47;;;;;;;2.90;1.10;;;;;;;12.58;100.00;100852.41;5340495;27;20031;-74
2023/11/07 10:56:20;;;;;;;2.13;1.20;;;;;;;12.64;100.00;100851.81;5340828;27;20033;-74
2023/11/07 10:59:00;;;;;;;2.75;1.30;;;;;;;12.71;100.00;100858.16;5340847;27;20388;-74
2023/11/07 11:01:36;;;;;;;3.88;1.40;;;;;;;12.61;100.00;100868.72;5340044;27;20547;-74
2023/11/07 11:04:11;;;;;;;4.43;1.40;;;;;;;12.60;100.00;100850.47;5341231;27;20023;-74
2023/11/07 11:06:52;;;;;;;3.85;1.42;;;;;;;12.73;100.00;100861.50;5340060;27;20034;-74
2023/11/07 11:09:25;;;;;;;6.93;1.48;;;;;;;12.60;100.00;100859.16;5335397;27;20027;-74
2023/11/07 11:11:59;;;;;;;5.28;1.88;;;;;;;12.61;100.00;100850.34;5339135;27;20481;-74
2023/11/07 11:14:31;;;;;;;4.18;1.80;;;;;;;12.55;100.00;100852.69;5338839;27;20031;-74
2023/11/07 11:17:17;;;;;;;3.40;1.30;;;;;;;12.69;100.00;100849.63;5339486;27;20027;-74
2023/11/07 11:20:03;;;;;;;5.60;1.50;;;;;;;12.86;100.00;100845.38;5341479;27;20035;-74
2023/11/07 11:22:43;;;;;;;3.83;1.60;;;;;;;12.78;100.00;100842.66;5343187;27;20392;-74
2023/11/07 11:25:49;;;;;;;3.70;1.80;;;;;;;13.26;100.00;100845.09;5339275;27;20027;-74
2023/11/07 11:28:40;;;;;;;5.13;1.90;;;;;;;13.29;100.00;100842.13;5342773;27;20035;-74
2023/11/07 11:31:18;;;;;;;4.18;1.60;;;;;;;13.35;100.00;100841.56;5342064;27;20038;-74
2023/11/07 11:34:25;;;;;;;4.20;1.58;;;;;;;13.69;100.00;100840.91;5340426;27;20042;-74
2023/11/07 11:36:59;;;;;;;3.80;1.55;;;;;;;13.57;100.00;100836.84;5333737;27;20038;-74
2023/11/07 11:39:33;;;;;;;3.45;1.42;;;;;;;13.59;100.00;100848.03;5340996;27;20476;-74
2023/11/07 11:42:09;;;;;;;4.90;1.30;;;;;;;13.75;100.00;100842.09;5341543;27;20469;-74
2023/11/07 11:44:41;;;;;;;2.83;1.35;;;;;;;13.78;100.00;100841.81;5341524;27;20019;-74
2023/11/07 11:47:51;;;;;;;5.20;1.90;;;;;;;14.20;100.00;100844.63;5340912;27;20038;-74